sensor_id;sensor_type;location;lat;lon;timestamp;P1;durP1;ratioP1;P2;durP2;ratioP2
74044;SDS011;62389;51.412;5.436;2023-06-10T00:01:39;9.65;;;7.93;;
74044;SDS011;62389;51.412;5.436;2023-06-10T00:04:04;10.48;;;7.97;;
74044;SDS011;62389;51.412;5.436;2023-06-10T00:06:30;8.32;;;7.32;;
74044;SDS011;62389;51.412;5.436;2023-06-10T00:09:01;11.00;;;7.53;;
74044;SDS011;62389;51.412;5.436;2023-06-10T00:11:29;9.57;;;7.50;;
74044;SDS011;62389;51.412;5.436;2023-06-10T00:13:55;9.07;;;7.32;;
74044;SDS011;62389;51.412;5.436;2023-06-10T00:16:20;10.48;;;8.23;;
74044;SDS011;62389;51.412;5.436;2023-06-10T00:18:45;11.10;;;7.55;;
74044;SDS011;62389;51.412;5.436;2023-06-10T00:21:12;9.45;;;8.27;;
74044;SDS011;62389;51.412;5.436;2023-06-10T00:23:38;9.48;;;8.32;;
74044;SDS011;62389;51.412;5.436;2023-06-10T00:26:03;10.27;;;7.93;;
74044;SDS011;62389;51.412;5.436;2023-06-10T00:28:29;9.57;;;7.80;;
74044;SDS011;62389;51.412;5.436;2023-06-10T00:30:55;9.30;;;7.78;;
74044;SDS011;62389;51.412;5.436;2023-06-10T00:33:20;9.77;;;7.95;;
74044;SDS011;62389;51.412;5.436;2023-06-10T00:35:46;9.18;;;8.15;;
74044;SDS011;62389;51.412;5.436;2023-06-10T00:38:13;11.05;;;7.80;;
74044;SDS011;62389;51.412;5.436;2023-06-10T00:40:39;10.07;;;8.63;;
74044;SDS011;62389;51.412;5.436;2023-06-10T00:43:08;8.80;;;7.78;;
74044;SDS011;62389;51.412;5.436;2023-06-10T00:45:33;10.90;;;8.55;;
74044;SDS011;62389;51.412;5.436;2023-06-10T00:47:59;9.15;;;8.18;;
74044;SDS011;62389;51.412;5.436;2023-06-10T00:52:51;10.05;;;8.50;;
74044;SDS011;62389;51.412;5.436;2023-06-10T00:55:18;10.75;;;8.25;;
74044;SDS011;62389;51.412;5.436;2023-06-10T00:57:44;9.68;;;8.15;;
74044;SDS011;62389;51.412;5.436;2023-06-10T01:00:11;9.88;;;8.00;;
74044;SDS011;62389;51.412;5.436;2023-06-10T01:02:37;11.00;;;8.77;;
74044;SDS011;62389;51.412;5.436;2023-06-10T01:05:03;10.32;;;9.05;;
74044;SDS011;62389;51.412;5.436;2023-06-10T01:07:31;9.45;;;8.10;;
74044;SDS011;62389;51.412;5.436;2023-06-10T01:10:11;9.88;;;8.00;;
74044;SDS011;62389;51.412;5.436;2023-06-10T01:12:43;9.70;;;8.18;;
74044;SDS011;62389;51.412;5.436;2023-06-10T01:15:15;10.10;;;7.88;;
74044;SDS011;62389;51.412;5.436;2023-06-10T01:18:00;10.63;;;7.88;;
74044;SDS011;62389;51.412;5.436;2023-06-10T01:20:28;11.70;;;8.23;;
74044;SDS011;62389;51.412;5.436;2023-06-10T01:22:54;13.13;;;8.25;;
74044;SDS011;62389;51.412;5.436;2023-06-10T01:25:21;9.75;;;7.45;;
74044;SDS011;62389;51.412;5.436;2023-06-10T01:27:53;13.65;;;7.70;;
74044;SDS011;62389;51.412;5.436;2023-06-10T01:33:14;12.35;;;8.20;;
74044;SDS011;62389;51.412;5.436;2023-06-10T01:35:50;10.68;;;8.05;;
74044;SDS011;62389;51.412;5.436;2023-06-10T01:38:15;10.00;;;8.38;;
74044;SDS011;62389;51.412;5.436;2023-06-10T01:40:44;10.85;;;8.88;;
74044;SDS011;62389;51.412;5.436;2023-06-10T01:43:11;11.13;;;9.00;;
74044;SDS011;62389;51.412;5.436;2023-06-10T01:45:36;10.35;;;8.48;;
74044;SDS011;62389;51.412;5.436;2023-06-10T01:48:02;9.73;;;8.15;;
74044;SDS011;62389;51.412;5.436;2023-06-10T01:50:27;10.82;;;8.25;;
74044;SDS011;62389;51.412;5.436;2023-06-10T01:52:53;9.50;;;8.30;;
74044;SDS011;62389;51.412;5.436;2023-06-10T01:55:18;11.43;;;8.55;;
74044;SDS011;62389;51.412;5.436;2023-06-10T01:57:43;9.63;;;7.70;;
74044;SDS011;62389;51.412;5.436;2023-06-10T02:00:09;12.35;;;9.07;;
74044;SDS011;62389;51.412;5.436;2023-06-10T02:02:35;11.55;;;8.73;;
74044;SDS011;62389;51.412;5.436;2023-06-10T02:05:00;9.63;;;8.52;;
74044;SDS011;62389;51.412;5.436;2023-06-10T02:07:26;12.70;;;8.82;;
74044;SDS011;62389;51.412;5.436;2023-06-10T02:09:52;9.90;;;8.18;;
74044;SDS011;62389;51.412;5.436;2023-06-10T02:12:17;10.65;;;8.45;;
74044;SDS011;62389;51.412;5.436;2023-06-10T02:14:42;10.05;;;8.60;;
74044;SDS011;62389;51.412;5.436;2023-06-10T02:17:08;11.30;;;8.48;;
74044;SDS011;62389;51.412;5.436;2023-06-10T02:19:37;12.43;;;8.35;;
74044;SDS011;62389;51.412;5.436;2023-06-10T02:22:07;12.23;;;8.60;;
74044;SDS011;62389;51.412;5.436;2023-06-10T02:24:32;10.98;;;8.80;;
74044;SDS011;62389;51.412;5.436;2023-06-10T02:26:58;11.75;;;9.30;;
74044;SDS011;62389;51.412;5.436;2023-06-10T02:29:25;12.52;;;8.73;;
74044;SDS011;62389;51.412;5.436;2023-06-10T02:31:51;12.70;;;9.43;;
74044;SDS011;62389;51.412;5.436;2023-06-10T02:34:17;14.38;;;9.25;;
74044;SDS011;62389;51.412;5.436;2023-06-10T02:36:43;12.52;;;9.40;;
74044;SDS011;62389;51.412;5.436;2023-06-10T02:39:09;11.82;;;9.15;;
74044;SDS011;62389;51.412;5.436;2023-06-10T02:41:34;11.63;;;8.80;;
74044;SDS011;62389;51.412;5.436;2023-06-10T02:44:00;10.75;;;8.52;;
74044;SDS011;62389;51.412;5.436;2023-06-10T02:46:26;11.40;;;8.70;;
74044;SDS011;62389;51.412;5.436;2023-06-10T02:48:53;11.50;;;8.23;;
74044;SDS011;62389;51.412;5.436;2023-06-10T02:51:19;12.23;;;8.90;;
74044;SDS011;62389;51.412;5.436;2023-06-10T02:53:45;12.65;;;9.18;;
74044;SDS011;62389;51.412;5.436;2023-06-10T02:56:11;9.73;;;8.45;;
74044;SDS011;62389;51.412;5.436;2023-06-10T02:58:37;10.93;;;8.30;;
74044;SDS011;62389;51.412;5.436;2023-06-10T03:01:03;10.35;;;8.48;;
74044;SDS011;62389;51.412;5.436;2023-06-10T03:03:28;11.48;;;8.95;;
74044;SDS011;62389;51.412;5.436;2023-06-10T03:05:55;11.75;;;8.70;;
74044;SDS011;62389;51.412;5.436;2023-06-10T03:08:21;12.32;;;8.73;;
74044;SDS011;62389;51.412;5.436;2023-06-10T03:10:47;12.80;;;8.93;;
74044;SDS011;62389;51.412;5.436;2023-06-10T03:13:12;10.30;;;8.73;;
74044;SDS011;62389;51.412;5.436;2023-06-10T03:15:39;13.25;;;9.48;;
74044;SDS011;62389;51.412;5.436;2023-06-10T03:18:05;13.48;;;9.27;;
74044;SDS011;62389;51.412;5.436;2023-06-10T03:20:31;11.50;;;8.77;;
74044;SDS011;62389;51.412;5.436;2023-06-10T03:23:02;10.25;;;8.13;;
74044;SDS011;62389;51.412;5.436;2023-06-10T03:25:27;12.00;;;8.90;;
74044;SDS011;62389;51.412;5.436;2023-06-10T03:27:53;12.68;;;9.57;;
74044;SDS011;62389;51.412;5.436;2023-06-10T03:30:19;10.43;;;9.27;;
74044;SDS011;62389;51.412;5.436;2023-06-10T03:32:44;10.48;;;8.52;;
74044;SDS011;62389;51.412;5.436;2023-06-10T03:35:09;12.65;;;8.77;;
74044;SDS011;62389;51.412;5.436;2023-06-10T03:37:35;11.32;;;9.27;;
74044;SDS011;62389;51.412;5.436;2023-06-10T03:40:01;12.13;;;9.73;;
74044;SDS011;62389;51.412;5.436;2023-06-10T03:42:26;13.43;;;9.68;;
74044;SDS011;62389;51.412;5.436;2023-06-10T03:44:51;13.63;;;9.57;;
74044;SDS011;62389;51.412;5.436;2023-06-10T03:47:17;12.60;;;9.02;;
74044;SDS011;62389;51.412;5.436;2023-06-10T03:49:43;11.50;;;8.85;;
74044;SDS011;62389;51.412;5.436;2023-06-10T03:52:08;11.55;;;9.18;;
74044;SDS011;62389;51.412;5.436;2023-06-10T03:54:33;13.10;;;9.02;;
74044;SDS011;62389;51.412;5.436;2023-06-10T03:57:00;14.55;;;9.27;;
74044;SDS011;62389;51.412;5.436;2023-06-10T03:59:26;12.25;;;9.80;;
74044;SDS011;62389;51.412;5.436;2023-06-10T04:01:51;12.10;;;9.45;;
74044;SDS011;62389;51.412;5.436;2023-06-10T04:04:16;17.17;;;9.82;;
74044;SDS011;62389;51.412;5.436;2023-06-10T04:06:42;13.82;;;10.63;;
74044;SDS011;62389;51.412;5.436;2023-06-10T04:09:08;14.75;;;8.90;;
74044;SDS011;62389;51.412;5.436;2023-06-10T04:11:34;13.57;;;9.93;;
74044;SDS011;62389;51.412;5.436;2023-06-10T04:14:00;13.05;;;10.25;;
74044;SDS011;62389;51.412;5.436;2023-06-10T04:16:26;12.60;;;9.25;;
74044;SDS011;62389;51.412;5.436;2023-06-10T04:18:52;12.48;;;9.05;;
74044;SDS011;62389;51.412;5.436;2023-06-10T04:21:17;14.80;;;10.88;;
74044;SDS011;62389;51.412;5.436;2023-06-10T04:23:43;13.73;;;10.82;;
74044;SDS011;62389;51.412;5.436;2023-06-10T04:26:08;13.60;;;10.80;;
74044;SDS011;62389;51.412;5.436;2023-06-10T04:28:33;15.98;;;10.20;;
74044;SDS011;62389;51.412;5.436;2023-06-10T04:30:59;14.55;;;10.93;;
74044;SDS011;62389;51.412;5.436;2023-06-10T04:33:24;14.90;;;10.90;;
74044;SDS011;62389;51.412;5.436;2023-06-10T04:35:50;14.48;;;11.25;;
74044;SDS011;62389;51.412;5.436;2023-06-10T04:38:15;15.77;;;11.25;;
74044;SDS011;62389;51.412;5.436;2023-06-10T04:40:41;16.48;;;11.07;;
74044;SDS011;62389;51.412;5.436;2023-06-10T04:43:06;12.43;;;10.38;;
74044;SDS011;62389;51.412;5.436;2023-06-10T04:45:31;14.23;;;10.80;;
74044;SDS011;62389;51.412;5.436;2023-06-10T04:47:57;15.57;;;11.27;;
74044;SDS011;62389;51.412;5.436;2023-06-10T04:50:23;14.30;;;11.23;;
74044;SDS011;62389;51.412;5.436;2023-06-10T04:52:48;14.85;;;10.65;;
74044;SDS011;62389;51.412;5.436;2023-06-10T04:55:14;13.02;;;9.98;;
74044;SDS011;62389;51.412;5.436;2023-06-10T04:57:40;15.23;;;10.85;;
74044;SDS011;62389;51.412;5.436;2023-06-10T05:00:05;13.57;;;9.85;;
74044;SDS011;62389;51.412;5.436;2023-06-10T05:02:31;16.10;;;11.15;;
74044;SDS011;62389;51.412;5.436;2023-06-10T05:04:57;12.30;;;9.88;;
74044;SDS011;62389;51.412;5.436;2023-06-10T05:07:23;13.73;;;11.30;;
74044;SDS011;62389;51.412;5.436;2023-06-10T05:09:48;14.10;;;11.40;;
74044;SDS011;62389;51.412;5.436;2023-06-10T05:12:14;17.25;;;10.68;;
74044;SDS011;62389;51.412;5.436;2023-06-10T05:14:39;15.38;;;10.73;;
74044;SDS011;62389;51.412;5.436;2023-06-10T05:17:05;14.65;;;10.10;;
74044;SDS011;62389;51.412;5.436;2023-06-10T05:19:31;16.23;;;12.23;;
74044;SDS011;62389;51.412;5.436;2023-06-10T05:21:57;17.85;;;12.13;;
74044;SDS011;62389;51.412;5.436;2023-06-10T05:24:22;13.73;;;11.30;;
74044;SDS011;62389;51.412;5.436;2023-06-10T05:26:48;16.13;;;11.68;;
74044;SDS011;62389;51.412;5.436;2023-06-10T05:29:14;16.15;;;10.35;;
74044;SDS011;62389;51.412;5.436;2023-06-10T05:31:40;16.05;;;12.45;;
74044;SDS011;62389;51.412;5.436;2023-06-10T05:34:06;17.30;;;10.48;;
74044;SDS011;62389;51.412;5.436;2023-06-10T05:36:31;16.58;;;10.98;;
74044;SDS011;62389;51.412;5.436;2023-06-10T05:38:57;14.77;;;11.02;;
74044;SDS011;62389;51.412;5.436;2023-06-10T05:41:22;15.23;;;12.00;;
74044;SDS011;62389;51.412;5.436;2023-06-10T05:43:48;15.25;;;11.73;;
74044;SDS011;62389;51.412;5.436;2023-06-10T05:46:13;22.55;;;11.00;;
74044;SDS011;62389;51.412;5.436;2023-06-10T05:48:39;20.15;;;10.95;;
74044;SDS011;62389;51.412;5.436;2023-06-10T05:51:04;16.98;;;12.45;;
74044;SDS011;62389;51.412;5.436;2023-06-10T05:53:30;18.92;;;12.32;;
74044;SDS011;62389;51.412;5.436;2023-06-10T05:55:55;16.15;;;11.55;;
74044;SDS011;62389;51.412;5.436;2023-06-10T05:58:22;14.63;;;11.35;;
74044;SDS011;62389;51.412;5.436;2023-06-10T06:00:48;13.75;;;10.73;;
74044;SDS011;62389;51.412;5.436;2023-06-10T06:03:13;14.70;;;11.50;;
74044;SDS011;62389;51.412;5.436;2023-06-10T06:05:39;15.48;;;10.77;;
74044;SDS011;62389;51.412;5.436;2023-06-10T06:08:04;15.07;;;11.57;;
74044;SDS011;62389;51.412;5.436;2023-06-10T06:10:31;16.17;;;11.30;;
74044;SDS011;62389;51.412;5.436;2023-06-10T06:12:56;15.07;;;11.25;;
74044;SDS011;62389;51.412;5.436;2023-06-10T06:15:22;15.30;;;10.68;;
74044;SDS011;62389;51.412;5.436;2023-06-10T06:17:47;13.32;;;10.38;;
74044;SDS011;62389;51.412;5.436;2023-06-10T06:20:13;17.08;;;11.30;;
74044;SDS011;62389;51.412;5.436;2023-06-10T06:22:38;14.15;;;10.32;;
74044;SDS011;62389;51.412;5.436;2023-06-10T06:25:04;14.85;;;10.13;;
74044;SDS011;62389;51.412;5.436;2023-06-10T06:29:55;14.30;;;9.90;;
74044;SDS011;62389;51.412;5.436;2023-06-10T06:32:21;14.50;;;10.30;;
74044;SDS011;62389;51.412;5.436;2023-06-10T06:34:47;16.45;;;10.73;;
74044;SDS011;62389;51.412;5.436;2023-06-10T06:37:14;16.08;;;12.20;;
74044;SDS011;62389;51.412;5.436;2023-06-10T06:39:40;18.55;;;11.10;;
74044;SDS011;62389;51.412;5.436;2023-06-10T06:42:05;14.20;;;10.63;;
74044;SDS011;62389;51.412;5.436;2023-06-10T06:44:31;14.60;;;9.55;;
74044;SDS011;62389;51.412;5.436;2023-06-10T06:46:56;14.60;;;10.88;;
74044;SDS011;62389;51.412;5.436;2023-06-10T06:49:21;15.63;;;11.20;;
74044;SDS011;62389;51.412;5.436;2023-06-10T06:51:47;15.02;;;10.80;;
74044;SDS011;62389;51.412;5.436;2023-06-10T06:54:12;15.10;;;10.43;;
74044;SDS011;62389;51.412;5.436;2023-06-10T06:56:37;16.70;;;10.73;;
74044;SDS011;62389;51.412;5.436;2023-06-10T06:59:03;16.95;;;11.60;;
74044;SDS011;62389;51.412;5.436;2023-06-10T07:01:29;14.50;;;10.27;;
74044;SDS011;62389;51.412;5.436;2023-06-10T07:03:55;14.75;;;9.95;;
74044;SDS011;62389;51.412;5.436;2023-06-10T07:06:20;15.77;;;10.70;;
74044;SDS011;62389;51.412;5.436;2023-06-10T07:08:46;16.00;;;10.50;;
74044;SDS011;62389;51.412;5.436;2023-06-10T07:11:11;14.25;;;10.23;;
74044;SDS011;62389;51.412;5.436;2023-06-10T07:13:36;13.45;;;9.85;;
74044;SDS011;62389;51.412;5.436;2023-06-10T07:16:02;13.63;;;9.95;;
74044;SDS011;62389;51.412;5.436;2023-06-10T07:18:27;11.60;;;10.07;;
74044;SDS011;62389;51.412;5.436;2023-06-10T07:20:52;14.73;;;9.30;;
74044;SDS011;62389;51.412;5.436;2023-06-10T07:23:18;13.60;;;10.15;;
74044;SDS011;62389;51.412;5.436;2023-06-10T07:25:43;12.43;;;9.65;;
74044;SDS011;62389;51.412;5.436;2023-06-10T07:28:08;13.52;;;9.95;;
74044;SDS011;62389;51.412;5.436;2023-06-10T07:30:34;13.88;;;10.02;;
74044;SDS011;62389;51.412;5.436;2023-06-10T07:32:59;16.45;;;8.90;;
74044;SDS011;62389;51.412;5.436;2023-06-10T07:35:25;13.93;;;10.07;;
74044;SDS011;62389;51.412;5.436;2023-06-10T07:37:51;13.05;;;9.70;;
74044;SDS011;62389;51.412;5.436;2023-06-10T07:40:16;13.88;;;9.88;;
74044;SDS011;62389;51.412;5.436;2023-06-10T07:42:41;12.43;;;9.10;;
74044;SDS011;62389;51.412;5.436;2023-06-10T07:45:08;13.43;;;9.48;;
74044;SDS011;62389;51.412;5.436;2023-06-10T07:47:33;13.30;;;9.02;;
74044;SDS011;62389;51.412;5.436;2023-06-10T07:49:59;14.23;;;8.80;;
74044;SDS011;62389;51.412;5.436;2023-06-10T07:52:25;11.85;;;8.25;;
74044;SDS011;62389;51.412;5.436;2023-06-10T07:54:51;11.70;;;7.93;;
74044;SDS011;62389;51.412;5.436;2023-06-10T07:57:16;9.80;;;7.75;;
74044;SDS011;62389;51.412;5.436;2023-06-10T07:59:42;10.70;;;8.50;;
74044;SDS011;62389;51.412;5.436;2023-06-10T08:02:09;10.82;;;8.38;;
74044;SDS011;62389;51.412;5.436;2023-06-10T08:04:34;12.55;;;8.73;;
74044;SDS011;62389;51.412;5.436;2023-06-10T08:07:00;12.95;;;8.27;;
74044;SDS011;62389;51.412;5.436;2023-06-10T08:09:25;13.50;;;8.13;;
74044;SDS011;62389;51.412;5.436;2023-06-10T08:11:51;16.20;;;8.40;;
74044;SDS011;62389;51.412;5.436;2023-06-10T08:14:16;13.35;;;7.97;;
74044;SDS011;62389;51.412;5.436;2023-06-10T08:16:43;10.50;;;7.80;;
74044;SDS011;62389;51.412;5.436;2023-06-10T08:21:34;9.95;;;7.35;;
74044;SDS011;62389;51.412;5.436;2023-06-10T08:24:01;11.02;;;6.93;;
74044;SDS011;62389;51.412;5.436;2023-06-10T08:26:27;11.90;;;7.38;;
74044;SDS011;62389;51.412;5.436;2023-06-10T08:28:52;12.38;;;7.05;;
74044;SDS011;62389;51.412;5.436;2023-06-10T08:31:19;11.07;;;7.10;;
74044;SDS011;62389;51.412;5.436;2023-06-10T08:33:44;12.55;;;6.97;;
74044;SDS011;62389;51.412;5.436;2023-06-10T08:36:10;11.48;;;6.70;;
74044;SDS011;62389;51.412;5.436;2023-06-10T08:38:35;10.52;;;5.97;;
74044;SDS011;62389;51.412;5.436;2023-06-10T08:41:01;10.02;;;6.82;;
74044;SDS011;62389;51.412;5.436;2023-06-10T08:43:42;10.15;;;7.25;;
74044;SDS011;62389;51.412;5.436;2023-06-10T08:46:10;9.82;;;6.85;;
74044;SDS011;62389;51.412;5.436;2023-06-10T08:48:42;10.63;;;6.70;;
74044;SDS011;62389;51.412;5.436;2023-06-10T08:51:09;11.38;;;7.43;;
74044;SDS011;62389;51.412;5.436;2023-06-10T08:53:36;10.77;;;6.80;;
74044;SDS011;62389;51.412;5.436;2023-06-10T08:56:04;8.48;;;6.60;;
74044;SDS011;62389;51.412;5.436;2023-06-10T08:58:32;9.25;;;6.35;;
74044;SDS011;62389;51.412;5.436;2023-06-10T09:01:06;9.43;;;6.40;;
74044;SDS011;62389;51.412;5.436;2023-06-10T09:03:32;10.57;;;7.57;;
74044;SDS011;62389;51.412;5.436;2023-06-10T09:06:00;11.45;;;7.03;;
74044;SDS011;62389;51.412;5.436;2023-06-10T09:08:27;10.38;;;6.90;;
74044;SDS011;62389;51.412;5.436;2023-06-10T09:10:53;8.77;;;6.40;;
74044;SDS011;62389;51.412;5.436;2023-06-10T09:13:18;9.10;;;6.68;;
74044;SDS011;62389;51.412;5.436;2023-06-10T09:15:44;12.13;;;6.32;;
74044;SDS011;62389;51.412;5.436;2023-06-10T09:20:36;10.50;;;6.78;;
74044;SDS011;62389;51.412;5.436;2023-06-10T09:23:04;9.85;;;5.82;;
74044;SDS011;62389;51.412;5.436;2023-06-10T09:25:34;10.75;;;6.05;;
74044;SDS011;62389;51.412;5.436;2023-06-10T09:28:02;9.27;;;6.18;;
74044;SDS011;62389;51.412;5.436;2023-06-10T09:30:29;11.55;;;6.50;;
74044;SDS011;62389;51.412;5.436;2023-06-10T09:32:56;7.20;;;5.57;;
74044;SDS011;62389;51.412;5.436;2023-06-10T09:35:23;8.70;;;6.00;;
74044;SDS011;62389;51.412;5.436;2023-06-10T09:37:51;11.95;;;6.18;;
74044;SDS011;62389;51.412;5.436;2023-06-10T09:40:17;7.60;;;5.93;;
74044;SDS011;62389;51.412;5.436;2023-06-10T09:42:43;8.70;;;6.13;;
74044;SDS011;62389;51.412;5.436;2023-06-10T09:45:08;8.15;;;5.68;;
74044;SDS011;62389;51.412;5.436;2023-06-10T09:47:34;8.48;;;5.88;;
74044;SDS011;62389;51.412;5.436;2023-06-10T09:49:59;9.35;;;6.25;;
74044;SDS011;62389;51.412;5.436;2023-06-10T09:52:25;10.30;;;6.13;;
74044;SDS011;62389;51.412;5.436;2023-06-10T09:54:52;7.65;;;6.28;;
74044;SDS011;62389;51.412;5.436;2023-06-10T09:57:21;9.90;;;6.15;;
74044;SDS011;62389;51.412;5.436;2023-06-10T09:59:47;8.50;;;5.95;;
74044;SDS011;62389;51.412;5.436;2023-06-10T10:02:16;13.63;;;6.68;;
74044;SDS011;62389;51.412;5.436;2023-06-10T10:04:42;7.60;;;6.18;;
74044;SDS011;62389;51.412;5.436;2023-06-10T10:07:09;8.80;;;6.43;;
74044;SDS011;62389;51.412;5.436;2023-06-10T10:09:36;11.15;;;6.00;;
74044;SDS011;62389;51.412;5.436;2023-06-10T10:12:02;10.07;;;6.32;;
74044;SDS011;62389;51.412;5.436;2023-06-10T10:14:42;8.07;;;6.63;;
74044;SDS011;62389;51.412;5.436;2023-06-10T10:17:11;7.22;;;5.88;;
74044;SDS011;62389;51.412;5.436;2023-06-10T10:19:50;9.43;;;5.97;;
74044;SDS011;62389;51.412;5.436;2023-06-10T10:22:25;9.63;;;6.57;;
74044;SDS011;62389;51.412;5.436;2023-06-10T10:24:57;8.05;;;5.90;;
74044;SDS011;62389;51.412;5.436;2023-06-10T10:27:27;11.15;;;6.13;;
74044;SDS011;62389;51.412;5.436;2023-06-10T10:29:54;8.10;;;6.40;;
74044;SDS011;62389;51.412;5.436;2023-06-10T10:32:26;7.40;;;6.45;;
74044;SDS011;62389;51.412;5.436;2023-06-10T10:37:32;10.07;;;6.60;;
74044;SDS011;62389;51.412;5.436;2023-06-10T10:39:57;8.15;;;6.65;;
74044;SDS011;62389;51.412;5.436;2023-06-10T10:42:23;9.45;;;6.55;;
74044;SDS011;62389;51.412;5.436;2023-06-10T10:44:49;8.70;;;6.30;;
74044;SDS011;62389;51.412;5.436;2023-06-10T10:49:45;8.18;;;5.90;;
74044;SDS011;62389;51.412;5.436;2023-06-10T10:52:16;7.55;;;6.30;;
74044;SDS011;62389;51.412;5.436;2023-06-10T10:54:45;8.98;;;6.43;;
74044;SDS011;62389;51.412;5.436;2023-06-10T10:57:17;7.60;;;6.78;;
74044;SDS011;62389;51.412;5.436;2023-06-10T10:59:51;10.15;;;5.88;;
74044;SDS011;62389;51.412;5.436;2023-06-10T11:04:58;7.53;;;6.22;;
74044;SDS011;62389;51.412;5.436;2023-06-10T11:07:27;10.70;;;6.43;;
74044;SDS011;62389;51.412;5.436;2023-06-10T11:12:49;9.02;;;6.78;;
74044;SDS011;62389;51.412;5.436;2023-06-10T11:15:22;7.45;;;6.35;;
74044;SDS011;62389;51.412;5.436;2023-06-10T11:18:05;9.00;;;6.55;;
74044;SDS011;62389;51.412;5.436;2023-06-10T11:21:08;8.45;;;6.70;;
74044;SDS011;62389;51.412;5.436;2023-06-10T11:26:43;9.55;;;6.88;;
74044;SDS011;62389;51.412;5.436;2023-06-10T11:31:23;8.10;;;6.78;;
74044;SDS011;62389;51.412;5.436;2023-06-10T11:33:54;11.85;;;6.75;;
74044;SDS011;62389;51.412;5.436;2023-06-10T11:36:21;9.25;;;6.07;;
74044;SDS011;62389;51.412;5.436;2023-06-10T11:38:46;9.70;;;6.70;;
74044;SDS011;62389;51.412;5.436;2023-06-10T11:41:13;8.68;;;6.20;;
74044;SDS011;62389;51.412;5.436;2023-06-10T11:43:43;9.80;;;6.30;;
74044;SDS011;62389;51.412;5.436;2023-06-10T11:46:11;9.95;;;6.70;;
74044;SDS011;62389;51.412;5.436;2023-06-10T11:48:37;10.65;;;6.55;;
74044;SDS011;62389;51.412;5.436;2023-06-10T11:51:06;7.30;;;6.55;;
74044;SDS011;62389;51.412;5.436;2023-06-10T11:53:32;11.13;;;6.60;;
74044;SDS011;62389;51.412;5.436;2023-06-10T11:55:58;8.75;;;6.55;;
74044;SDS011;62389;51.412;5.436;2023-06-10T11:58:24;9.77;;;6.65;;
74044;SDS011;62389;51.412;5.436;2023-06-10T12:00:51;7.85;;;6.38;;
74044;SDS011;62389;51.412;5.436;2023-06-10T12:03:23;8.85;;;6.38;;
74044;SDS011;62389;51.412;5.436;2023-06-10T12:06:04;9.75;;;6.78;;
74044;SDS011;62389;51.412;5.436;2023-06-10T12:08:31;7.60;;;5.95;;
74044;SDS011;62389;51.412;5.436;2023-06-10T12:10:58;8.27;;;6.00;;
74044;SDS011;62389;51.412;5.436;2023-06-10T12:13:25;7.60;;;6.07;;
74044;SDS011;62389;51.412;5.436;2023-06-10T12:15:52;8.60;;;6.30;;
74044;SDS011;62389;51.412;5.436;2023-06-10T12:18:18;7.75;;;6.10;;
74044;SDS011;62389;51.412;5.436;2023-06-10T12:20:45;7.03;;;6.32;;
74044;SDS011;62389;51.412;5.436;2023-06-10T12:23:11;8.48;;;6.45;;
74044;SDS011;62389;51.412;5.436;2023-06-10T12:25:37;8.18;;;6.45;;
74044;SDS011;62389;51.412;5.436;2023-06-10T12:28:03;7.13;;;6.43;;
74044;SDS011;62389;51.412;5.436;2023-06-10T12:30:28;8.05;;;6.40;;
74044;SDS011;62389;51.412;5.436;2023-06-10T12:32:54;9.32;;;6.43;;
74044;SDS011;62389;51.412;5.436;2023-06-10T12:35:21;7.75;;;6.43;;
74044;SDS011;62389;51.412;5.436;2023-06-10T12:38:00;7.00;;;5.05;;
74044;SDS011;62389;51.412;5.436;2023-06-10T12:40:29;9.00;;;6.40;;
74044;SDS011;62389;51.412;5.436;2023-06-10T12:42:58;7.00;;;6.30;;
74044;SDS011;62389;51.412;5.436;2023-06-10T12:48:03;7.60;;;6.20;;
74044;SDS011;62389;51.412;5.436;2023-06-10T12:50:34;8.43;;;5.85;;
74044;SDS011;62389;51.412;5.436;2023-06-10T12:53:02;7.38;;;6.35;;
74044;SDS011;62389;51.412;5.436;2023-06-10T12:55:28;7.03;;;5.75;;
74044;SDS011;62389;51.412;5.436;2023-06-10T12:57:53;7.60;;;5.95;;
74044;SDS011;62389;51.412;5.436;2023-06-10T13:00:20;9.55;;;5.72;;
74044;SDS011;62389;51.412;5.436;2023-06-10T13:02:45;8.65;;;6.70;;
74044;SDS011;62389;51.412;5.436;2023-06-10T13:05:11;8.07;;;5.82;;
74044;SDS011;62389;51.412;5.436;2023-06-10T13:07:36;9.30;;;6.03;;
74044;SDS011;62389;51.412;5.436;2023-06-10T13:10:02;7.40;;;6.63;;
74044;SDS011;62389;51.412;5.436;2023-06-10T13:12:27;8.10;;;6.13;;
74044;SDS011;62389;51.412;5.436;2023-06-10T13:17:20;9.73;;;5.88;;
74044;SDS011;62389;51.412;5.436;2023-06-10T13:19:45;8.23;;;5.85;;
74044;SDS011;62389;51.412;5.436;2023-06-10T13:22:11;8.93;;;5.50;;
74044;SDS011;62389;51.412;5.436;2023-06-10T13:24:38;8.38;;;5.95;;
74044;SDS011;62389;51.412;5.436;2023-06-10T13:27:04;8.38;;;6.40;;
74044;SDS011;62389;51.412;5.436;2023-06-10T13:29:31;7.47;;;6.13;;
74044;SDS011;62389;51.412;5.436;2023-06-10T13:34:22;11.85;;;7.00;;
74044;SDS011;62389;51.412;5.436;2023-06-10T13:36:48;8.13;;;6.32;;
74044;SDS011;62389;51.412;5.436;2023-06-10T13:39:13;9.10;;;5.50;;
74044;SDS011;62389;51.412;5.436;2023-06-10T13:41:40;7.80;;;6.35;;
74044;SDS011;62389;51.412;5.436;2023-06-10T13:44:06;7.43;;;6.30;;
74044;SDS011;62389;51.412;5.436;2023-06-10T13:46:31;10.50;;;6.45;;
74044;SDS011;62389;51.412;5.436;2023-06-10T13:48:57;8.30;;;6.38;;
74044;SDS011;62389;51.412;5.436;2023-06-10T13:51:22;10.60;;;6.55;;
74044;SDS011;62389;51.412;5.436;2023-06-10T13:53:47;6.90;;;6.20;;
74044;SDS011;62389;51.412;5.436;2023-06-10T13:56:13;7.03;;;5.93;;
74044;SDS011;62389;51.412;5.436;2023-06-10T13:58:39;7.22;;;5.68;;
74044;SDS011;62389;51.412;5.436;2023-06-10T14:01:06;6.47;;;5.75;;
74044;SDS011;62389;51.412;5.436;2023-06-10T14:03:31;8.38;;;5.60;;
74044;SDS011;62389;51.412;5.436;2023-06-10T14:05:57;7.70;;;6.60;;
74044;SDS011;62389;51.412;5.436;2023-06-10T14:08:23;8.00;;;6.82;;
74044;SDS011;62389;51.412;5.436;2023-06-10T14:10:48;7.03;;;5.78;;
74044;SDS011;62389;51.412;5.436;2023-06-10T14:13:15;7.80;;;6.88;;
74044;SDS011;62389;51.412;5.436;2023-06-10T14:15:41;9.57;;;6.28;;
74044;SDS011;62389;51.412;5.436;2023-06-10T14:18:06;8.38;;;6.28;;
74044;SDS011;62389;51.412;5.436;2023-06-10T14:20:32;7.80;;;6.13;;
74044;SDS011;62389;51.412;5.436;2023-06-10T14:22:57;9.05;;;6.35;;
74044;SDS011;62389;51.412;5.436;2023-06-10T14:25:23;9.10;;;6.28;;
74044;SDS011;62389;51.412;5.436;2023-06-10T14:27:49;10.93;;;6.30;;
74044;SDS011;62389;51.412;5.436;2023-06-10T14:30:14;7.25;;;6.22;;
74044;SDS011;62389;51.412;5.436;2023-06-10T14:32:40;7.03;;;5.95;;
74044;SDS011;62389;51.412;5.436;2023-06-10T14:35:06;8.95;;;5.88;;
74044;SDS011;62389;51.412;5.436;2023-06-10T14:37:31;6.70;;;5.90;;
74044;SDS011;62389;51.412;5.436;2023-06-10T14:39:57;9.40;;;5.82;;
74044;SDS011;62389;51.412;5.436;2023-06-10T14:42:22;8.13;;;6.53;;
74044;SDS011;62389;51.412;5.436;2023-06-10T14:44:48;8.98;;;7.03;;
74044;SDS011;62389;51.412;5.436;2023-06-10T14:47:14;10.27;;;7.00;;
74044;SDS011;62389;51.412;5.436;2023-06-10T14:49:40;11.52;;;6.75;;
74044;SDS011;62389;51.412;5.436;2023-06-10T14:52:07;7.97;;;7.10;;
74044;SDS011;62389;51.412;5.436;2023-06-10T14:54:33;9.48;;;6.55;;
74044;SDS011;62389;51.412;5.436;2023-06-10T14:56:58;9.57;;;7.32;;
74044;SDS011;62389;51.412;5.436;2023-06-10T14:59:24;10.38;;;7.00;;
74044;SDS011;62389;51.412;5.436;2023-06-10T15:01:49;10.32;;;7.45;;
74044;SDS011;62389;51.412;5.436;2023-06-10T15:04:14;9.73;;;7.28;;
74044;SDS011;62389;51.412;5.436;2023-06-10T15:06:40;8.50;;;7.60;;
74044;SDS011;62389;51.412;5.436;2023-06-10T15:11:31;11.25;;;7.45;;
74044;SDS011;62389;51.412;5.436;2023-06-10T15:13:57;9.50;;;6.72;;